createdAt,value
2018-06-21T00:04:48.092Z,99822.84
2018-06-21T00:07:31.223Z,99819.31
2018-06-21T00:13:22.134Z,99820.45
2018-06-21T00:16:27.433Z,99821.56
2018-06-21T00:19:07.036Z,99811.70
2018-06-21T00:21:46.717Z,99799.66
2018-06-21T00:24:27.990Z,99802.12
2018-06-21T00:30:48.241Z,99796.92
2018-06-21T00:37:33.496Z,99790.57
2018-06-21T00:43:28.894Z,99777.98
2018-06-21T00:46:17.182Z,99713.71
2018-06-21T00:48:56.609Z,99786.48
2018-06-21T00:51:51.068Z,99782.91
2018-06-21T00:54:31.459Z,99777.95
2018-06-21T00:57:13.321Z,99779.84
2018-06-21T00:59:54.777Z,99775.17
2018-06-21T01:02:35.679Z,99771.02
2018-06-21T01:05:14.310Z,99764.98
2018-06-21T01:08:02.254Z,99769.16
2018-06-21T01:10:46.650Z,99765.52
2018-06-21T01:13:30.648Z,99776.44
2018-06-21T01:16:10.247Z,99773.45
2018-06-21T01:18:54.197Z,99773.72
2018-06-21T01:21:37.449Z,99776.23
2018-06-21T01:24:18.493Z,99765.43
2018-06-21T01:26:55.827Z,99771.55
2018-06-21T01:29:33.583Z,99772.45
2018-06-21T01:32:12.360Z,99769.75
2018-06-21T01:34:50.883Z,99765.13
2018-06-21T01:37:34.602Z,99772.71
2018-06-21T01:40:11.723Z,99773.61
2018-06-21T01:42:48.014Z,99774.91
2018-06-21T01:45:36.102Z,99687.20
2018-06-21T01:48:19.159Z,99772.61
2018-06-21T01:53:44.792Z,99768.45
2018-06-21T01:56:30.587Z,99763.86
2018-06-21T01:59:10.133Z,99768.67
2018-06-21T02:01:57.339Z,99776.33
2018-06-21T02:04:40.011Z,99777.61
2018-06-21T02:07:22.765Z,99767.94
2018-06-21T02:10:01.186Z,99774.05
2018-06-21T02:12:45.381Z,99778.56
2018-06-21T02:15:27.216Z,99767.02
2018-06-21T02:18:11.976Z,99762.00
2018-06-21T02:20:56.099Z,99751.84
2018-06-21T02:23:40.814Z,99745.53
2018-06-21T02:26:30.208Z,99751.21
2018-06-21T02:29:13.005Z,99751.13
2018-06-21T02:31:50.362Z,99741.77
2018-06-21T02:34:31.903Z,99736.28
2018-06-21T02:37:14.992Z,99740.16
2018-06-21T02:40:12.734Z,99730.88
2018-06-21T02:42:58.656Z,99721.83
2018-06-21T02:45:40.827Z,99730.45
2018-06-21T02:48:25.798Z,99717.03
2018-06-21T02:51:08.919Z,99730.33
2018-06-21T02:53:54.995Z,99727.84
2018-06-21T02:56:37.946Z,99723.95
2018-06-21T02:59:21.184Z,99728.95
2018-06-21T03:02:07.857Z,99730.22
2018-06-21T03:04:48.449Z,99734.63
2018-06-21T03:07:29.662Z,99732.13
2018-06-21T03:10:09.162Z,99727.72
2018-06-21T03:12:49.084Z,99733.08
2018-06-21T03:15:27.339Z,99724.28
2018-06-21T03:18:08.004Z,99613.69
2018-06-21T03:20:46.618Z,99729.83
2018-06-21T03:23:28.228Z,99732.02
2018-06-21T03:26:17.544Z,99711.17
2018-06-21T03:29:01.042Z,99729.16
2018-06-21T03:31:44.086Z,99720.81
2018-06-21T03:34:20.054Z,99713.95
2018-06-21T03:37:05.009Z,99717.73
2018-06-21T03:39:45.546Z,99701.64
2018-06-21T03:42:26.525Z,99706.31
2018-06-21T03:44:59.333Z,99692.05
2018-06-21T03:47:30.985Z,99687.95
2018-06-21T03:50:03.466Z,99685.16
2018-06-21T03:52:34.965Z,99689.77
2018-06-21T03:55:07.015Z,99684.11
2018-06-21T03:57:38.393Z,99669.59
2018-06-21T04:00:09.800Z,99672.75
2018-06-21T04:02:43.163Z,99676.72
2018-06-21T04:05:14.571Z,99676.83
2018-06-21T04:07:45.670Z,99677.17
2018-06-21T04:10:17.063Z,99691.07
2018-06-21T04:12:49.187Z,99681.71
2018-06-21T04:15:20.674Z,99668.91
2018-06-21T04:17:52.199Z,99696.37
2018-06-21T04:20:23.591Z,99686.81
2018-06-21T04:22:57.805Z,99686.42
2018-06-21T04:25:30.751Z,99690.95
2018-06-21T04:28:02.216Z,99682.73
2018-06-21T04:30:34.948Z,99694.15
2018-06-21T04:33:07.115Z,99694.74
2018-06-21T04:35:39.500Z,99698.23
2018-06-21T04:38:13.763Z,99708.71
2018-06-21T04:40:48.695Z,99696.33
2018-06-21T04:43:24.114Z,99693.12
2018-06-21T04:45:56.439Z,99687.36
2018-06-21T04:48:30.447Z,99683.70
2018-06-21T04:51:03.740Z,99701.77
2018-06-21T04:53:35.113Z,99692.38
2018-06-21T04:56:09.236Z,99690.71
2018-06-21T04:58:42.247Z,99683.84
2018-06-21T05:01:15.028Z,99687.13
2018-06-21T05:03:46.423Z,99685.88
2018-06-21T05:06:19.313Z,99682.00
2018-06-21T05:08:52.375Z,99685.12
2018-06-21T05:11:23.966Z,99696.94
2018-06-21T05:13:56.211Z,99705.67
2018-06-21T05:16:29.107Z,99701.53
2018-06-21T05:19:00.550Z,99694.91
2018-06-21T05:21:35.021Z,99707.44
2018-06-21T05:24:09.025Z,99700.62
2018-06-21T05:26:42.056Z,99701.83
2018-06-21T05:29:14.683Z,99696.17
2018-06-21T05:31:46.047Z,99700.75
2018-06-21T05:34:18.791Z,99704.20
2018-06-21T05:36:50.785Z,99705.86
2018-06-21T05:39:22.243Z,99709.56
2018-06-21T05:41:54.368Z,99709.11
2018-06-21T05:44:27.909Z,99707.89
2018-06-21T05:46:59.384Z,99711.70
2018-06-21T05:49:31.076Z,99716.18
2018-06-21T05:52:02.444Z,99715.52
2018-06-21T05:54:33.618Z,99713.47
2018-06-21T05:57:05.426Z,99714.48
2018-06-21T05:59:37.764Z,99714.71
2018-06-21T06:02:09.890Z,99712.59
2018-06-21T06:04:41.371Z,99717.34
2018-06-21T06:07:16.360Z,99715.48
2018-06-21T06:09:52.982Z,99715.88
2018-06-21T06:12:25.590Z,99710.44
2018-06-21T06:15:07.760Z,99720.53
2018-06-21T06:17:39.112Z,99720.72
2018-06-21T06:20:15.626Z,99717.19
2018-06-21T06:22:52.968Z,99717.85
2018-06-21T06:25:24.963Z,99716.95
2018-06-21T06:28:00.001Z,99717.98
2018-06-21T06:30:35.414Z,99720.16
2018-06-21T06:33:07.846Z,99719.23
2018-06-21T06:35:40.418Z,99723.97
2018-06-21T06:38:12.674Z,99724.13
2018-06-21T06:40:44.075Z,99719.13
2018-06-21T06:43:16.143Z,99719.95
2018-06-21T06:45:49.662Z,99723.16
2018-06-21T06:48:25.806Z,99711.37
2018-06-21T06:50:58.338Z,99710.83
2018-06-21T06:53:32.288Z,99718.89
2018-06-21T06:58:53.180Z,99702.78
2018-06-21T07:01:40.444Z,99707.45
2018-06-21T07:04:23.655Z,99705.76
2018-06-21T07:07:03.645Z,99699.64
2018-06-21T07:09:43.114Z,99698.39
2018-06-21T07:12:17.966Z,99699.38
2018-06-21T07:14:57.119Z,99691.55
2018-06-21T07:17:36.667Z,99690.52
2018-06-21T07:20:14.667Z,99684.80
2018-06-21T07:23:06.360Z,99680.48
2018-06-21T07:25:44.664Z,99676.34
2018-06-21T07:28:21.306Z,99593.73
2018-06-21T07:31:02.839Z,99672.44
2018-06-21T07:33:50.735Z,99673.95
2018-06-21T07:36:33.828Z,99668.34
2018-06-21T07:39:16.902Z,99653.41
2018-06-21T07:42:04.553Z,99667.63
2018-06-21T07:44:48.429Z,99674.72
2018-06-21T07:47:22.722Z,99678.53
2018-06-21T07:50:07.589Z,99671.98
2018-06-21T07:52:43.685Z,99576.05
2018-06-21T07:55:19.408Z,99668.97
2018-06-21T07:57:53.803Z,99667.13
2018-06-21T08:03:50.088Z,99679.94
2018-06-21T08:06:43.640Z,99673.23
2018-06-21T08:13:22.736Z,99673.05
2018-06-21T08:15:59.873Z,99669.05
2018-06-21T08:21:56.803Z,99681.36
2018-06-21T08:24:36.735Z,99686.31
2018-06-21T08:27:22.242Z,99684.28
2018-06-21T08:30:06.419Z,99688.55
2018-06-21T08:33:03.313Z,99688.87
2018-06-21T08:35:40.991Z,99692.69
2018-06-21T08:38:16.763Z,99696.31
2018-06-21T08:40:57.177Z,99680.73
2018-06-21T08:43:41.743Z,99708.16
2018-06-21T08:46:26.578Z,99709.07
2018-06-21T08:49:03.982Z,99711.49
2018-06-21T08:51:44.248Z,99701.32
2018-06-21T08:54:19.487Z,99722.58
2018-06-21T08:56:56.356Z,99723.20
2018-06-21T08:59:31.389Z,99732.16
2018-06-21T09:02:20.382Z,99720.86
2018-06-21T09:05:37.442Z,99727.19
2018-06-21T09:08:20.947Z,99730.88
2018-06-21T09:11:03.304Z,99632.84
2018-06-21T09:13:43.946Z,99726.66
2018-06-21T09:16:34.422Z,99722.12
2018-06-21T09:19:25.436Z,99727.31
2018-06-21T09:22:04.657Z,99720.80
2018-06-21T09:24:46.659Z,99720.30
2018-06-21T09:27:50.790Z,99709.67
2018-06-21T09:30:41.494Z,99731.19
2018-06-21T09:33:35.387Z,99725.34
2018-06-21T09:36:34.334Z,99739.88
2018-06-21T09:39:24.344Z,99759.91
2018-06-21T09:42:22.836Z,99690.20
2018-06-21T09:56:49.540Z,99810.91
2018-06-21T10:03:05.916Z,99832.83
2018-06-21T10:05:51.048Z,99855.09
2018-06-21T10:08:44.263Z,99819.28
2018-06-21T10:11:31.850Z,99866.27
2018-06-21T10:20:57.981Z,99842.92
2018-06-21T10:23:50.899Z,99826.48
2018-06-21T10:26:40.453Z,99847.24
2018-06-21T10:29:37.696Z,99848.36
2018-06-21T10:32:31.079Z,99845.91
2018-06-21T10:35:21.098Z,99859.30
2018-06-21T10:38:03.103Z,99852.95
2018-06-21T10:44:05.165Z,99850.52
2018-06-21T10:46:46.311Z,99771.13
2018-06-21T10:52:54.218Z,99854.73
2018-06-21T10:58:42.800Z,99838.72
2018-06-21T11:08:50.049Z,99840.28
2018-06-21T11:14:59.416Z,99830.38
2018-06-21T11:22:52.914Z,99840.03
2018-06-21T11:25:34.405Z,99840.85
2018-06-21T11:28:50.734Z,99845.84
2018-06-21T11:37:41.026Z,99841.05
2018-06-21T11:40:21.527Z,99828.73
2018-06-21T11:43:26.611Z,99851.17
2018-06-21T11:46:14.012Z,99852.77
2018-06-21T11:52:40.342Z,99867.95
2018-06-21T11:55:36.246Z,99876.16
2018-06-21T11:58:47.352Z,99865.50
2018-06-21T12:05:08.222Z,99881.52
2018-06-21T12:07:42.073Z,99902.36
2018-06-21T12:10:29.813Z,99890.55
2018-06-21T12:13:05.028Z,99890.55
2018-06-21T12:15:37.319Z,99897.69
2018-06-21T12:18:10.839Z,99906.45
2018-06-21T12:20:44.755Z,99897.97
2018-06-21T12:23:17.445Z,99900.47
2018-06-21T12:25:50.437Z,99896.14
2018-06-21T12:28:28.264Z,99887.48
2018-06-21T12:31:05.427Z,99892.48
2018-06-21T12:33:51.976Z,99904.76
2018-06-21T12:36:30.190Z,99913.72
2018-06-21T12:49:46.528Z,99918.81
2018-06-21T12:52:28.803Z,99921.48
2018-06-21T12:55:03.542Z,99929.44
2018-06-21T13:01:39.638Z,99930.50
2018-06-21T13:04:13.440Z,99941.00
2018-06-21T13:07:08.747Z,99948.88
2018-06-21T13:09:59.725Z,99923.83
2018-06-21T13:12:44.826Z,99931.08
2018-06-21T13:16:30.575Z,99934.56
2018-06-21T13:19:04.695Z,99932.17
2018-06-21T13:21:43.048Z,99933.73
2018-06-21T13:24:26.833Z,99923.16
2018-06-21T13:27:05.377Z,99930.30
2018-06-21T13:29:42.748Z,99926.31
2018-06-21T13:32:16.560Z,99941.50
2018-06-21T13:34:55.690Z,99952.78
2018-06-21T13:37:32.083Z,99931.23
2018-06-21T13:40:06.938Z,99960.34
2018-06-21T13:42:44.800Z,99935.35
2018-06-21T13:45:21.277Z,99966.17
2018-06-21T13:48:03.260Z,99959.45
2018-06-21T13:50:37.937Z,99944.58
2018-06-21T13:53:13.424Z,99972.86
2018-06-21T13:55:49.321Z,99960.83
2018-06-21T13:58:25.328Z,99975.61
2018-06-21T14:00:59.311Z,99974.23
2018-06-21T14:03:33.619Z,99972.42
2018-06-21T14:06:09.462Z,99971.52
2018-06-21T14:08:47.410Z,99978.94
2018-06-21T14:11:26.520Z,99976.81
2018-06-21T14:14:07.347Z,99975.27
2018-06-21T14:16:45.582Z,99987.48
2018-06-21T14:19:19.489Z,99984.83
2018-06-21T14:24:37.909Z,99984.33
2018-06-21T14:27:16.044Z,99987.02
2018-06-21T14:29:51.986Z,99998.05
2018-06-21T14:32:27.473Z,100007.00
2018-06-21T14:35:15.021Z,100009.77
2018-06-21T14:37:53.418Z,100019.38
2018-06-21T14:40:29.329Z,100009.25
2018-06-21T14:43:09.582Z,100004.27
2018-06-21T14:45:43.272Z,100011.17
2018-06-21T14:48:16.529Z,100018.91
2018-06-21T14:50:53.854Z,100015.14
2018-06-21T14:53:27.812Z,100006.02
2018-06-21T14:56:11.396Z,100021.39
2018-06-21T14:59:00.568Z,100036.73
2018-06-21T15:01:34.793Z,100026.37
2018-06-21T15:04:10.927Z,100037.03
2018-06-21T15:06:46.595Z,100046.09
2018-06-21T15:09:23.308Z,100041.84
2018-06-21T15:11:59.782Z,100050.39
2018-06-21T15:14:34.255Z,100034.03
2018-06-21T15:17:10.445Z,100044.35
2018-06-21T15:19:45.908Z,100048.48
2018-06-21T15:22:25.485Z,100050.98
2018-06-21T15:25:03.777Z,100038.48
2018-06-21T15:27:39.477Z,100040.37
2018-06-21T15:30:19.378Z,100045.67
2018-06-21T15:32:58.624Z,100056.42
2018-06-21T15:35:35.102Z,100052.06
2018-06-21T15:38:09.532Z,100073.29
2018-06-21T15:40:43.310Z,100060.87
2018-06-21T15:43:19.391Z,100056.05
2018-06-21T15:45:52.767Z,100060.23
2018-06-21T15:48:27.667Z,100080.44
2018-06-21T15:51:05.388Z,100071.36
2018-06-21T15:53:39.529Z,100078.23
2018-06-21T15:56:19.789Z,100075.77
2018-06-21T15:58:53.056Z,100085.80
2018-06-21T16:01:29.374Z,100087.16
2018-06-21T16:04:05.339Z,100090.40
2018-06-21T16:06:43.167Z,100088.97
2018-06-21T16:09:20.568Z,100095.00
2018-06-21T16:11:55.428Z,100093.73
2018-06-21T16:14:30.280Z,100091.91
2018-06-21T16:17:06.934Z,100100.34
2018-06-21T16:19:41.570Z,100092.56
2018-06-21T16:22:17.525Z,100099.47
2018-06-21T16:24:54.883Z,100096.73
2018-06-21T16:27:28.361Z,100089.36
2018-06-21T16:30:01.904Z,100083.02
2018-06-21T16:32:38.954Z,100105.23
2018-06-21T16:35:12.498Z,100094.59
2018-06-21T16:37:49.303Z,100120.06
2018-06-21T16:40:25.372Z,100107.77
2018-06-21T16:43:02.592Z,100106.11
2018-06-21T16:45:36.184Z,100099.52
2018-06-21T16:51:10.479Z,100115.91
2018-06-21T16:53:49.861Z,100115.15
2018-06-21T16:56:23.245Z,100135.11
2018-06-21T16:59:00.063Z,100139.48
2018-06-21T17:01:35.738Z,100149.65
2018-06-21T17:04:11.577Z,100137.06
2018-06-21T17:06:45.793Z,100150.23
2018-06-21T17:09:19.744Z,100152.97
2018-06-21T17:11:53.630Z,100158.16
2018-06-21T17:14:27.978Z,100157.89
2018-06-21T17:17:07.298Z,100164.77
2018-06-21T17:19:40.874Z,100171.35
2018-06-21T17:22:20.962Z,100180.08
2018-06-21T17:24:54.742Z,100187.46
2018-06-21T17:27:30.452Z,100176.67
2018-06-21T17:30:05.315Z,100174.80
2018-06-21T17:32:40.220Z,100187.16
2018-06-21T17:35:14.109Z,100186.29
2018-06-21T17:37:47.445Z,100192.92
2018-06-21T17:40:24.768Z,100159.94
2018-06-21T17:42:59.863Z,100190.07
2018-06-21T17:45:35.860Z,100187.75
2018-06-21T17:48:10.407Z,100195.79
2018-06-21T17:50:47.276Z,100211.15
2018-06-21T17:53:23.407Z,100213.55
2018-06-21T17:55:58.281Z,100219.05
2018-06-21T17:58:33.934Z,100211.46
2018-06-21T18:01:07.893Z,100206.12
2018-06-21T18:03:41.470Z,100214.57
2018-06-21T18:06:16.668Z,100223.86
2018-06-21T18:08:50.468Z,100221.55
2018-06-21T18:11:25.731Z,100222.63
2018-06-21T18:14:00.179Z,100234.20
2018-06-21T18:19:17.832Z,100216.22
2018-06-21T18:21:52.370Z,100219.18
2018-06-21T18:24:34.127Z,100232.96
2018-06-21T18:27:11.033Z,100241.19
2018-06-21T18:29:45.711Z,100252.12
2018-06-21T18:32:19.909Z,100255.73
2018-06-21T18:34:54.409Z,100253.84
2018-06-21T18:40:10.851Z,100258.63
2018-06-21T18:42:49.787Z,100257.69
2018-06-21T18:45:26.264Z,100260.95
2018-06-21T18:47:59.548Z,100261.42
2018-06-21T18:50:34.586Z,100261.08
2018-06-21T18:53:11.491Z,100268.14
2018-06-21T18:55:48.789Z,100279.77
2018-06-21T18:58:24.520Z,100273.07
2018-06-21T19:01:09.360Z,100276.62
2018-06-21T19:03:44.309Z,100287.86
2018-06-21T19:06:25.529Z,100291.63
2018-06-21T19:09:11.221Z,100299.77
2018-06-21T19:11:50.969Z,100297.75
2018-06-21T19:14:24.922Z,100305.13
2018-06-21T19:16:58.689Z,100311.05
2018-06-21T19:19:32.860Z,100307.79
2018-06-21T19:22:12.155Z,100317.52
2018-06-21T19:24:48.548Z,100324.10
2018-06-21T19:27:22.408Z,100316.37
2018-06-21T19:29:58.217Z,100322.75
2018-06-21T19:32:33.661Z,100315.33
2018-06-21T19:37:03.705Z,100319.52
2018-06-21T19:39:51.203Z,100305.55
2018-06-21T19:42:42.256Z,100333.82
2018-06-21T19:45:22.329Z,100338.55
2018-06-21T19:48:00.282Z,100345.02
2018-06-21T19:50:33.640Z,100342.78
2018-06-21T19:53:08.532Z,100342.94
2018-06-21T19:55:43.359Z,100350.28
2018-06-21T19:58:26.813Z,100359.63
2018-06-21T20:01:04.213Z,100358.52
2018-06-21T20:03:38.990Z,100371.02
2018-06-21T20:06:13.124Z,100357.02
2018-06-21T20:08:49.232Z,100375.93
2018-06-21T20:11:36.281Z,100301.94
2018-06-21T20:14:17.132Z,100381.75
2018-06-21T20:16:53.371Z,100381.27
2018-06-21T20:19:38.847Z,100369.22
2018-06-21T20:22:14.265Z,100378.91
2018-06-21T20:24:49.319Z,100385.24
2018-06-21T20:27:36.747Z,100398.41
2018-06-21T20:30:13.284Z,100391.08
2018-06-21T20:32:49.439Z,100399.53
2018-06-21T20:35:25.945Z,100389.36
2018-06-21T20:38:03.930Z,100392.67
2018-06-21T20:40:45.054Z,100398.91
2018-06-21T20:43:20.164Z,100404.61
2018-06-21T20:45:59.610Z,100404.42
2018-06-21T20:48:35.365Z,100399.75
2018-06-21T20:51:08.995Z,100392.26
2018-06-21T20:53:43.298Z,100408.06
2018-06-21T20:56:20.064Z,100406.22
2018-06-21T20:59:07.707Z,100411.11
2018-06-21T21:01:55.578Z,100397.70
2018-06-21T21:05:22.578Z,100410.13
2018-06-21T21:08:25.462Z,100414.42
2018-06-21T21:11:05.635Z,100415.27
2018-06-21T21:13:46.571Z,100424.31
2018-06-21T21:16:25.170Z,100420.92
2018-06-21T21:19:01.972Z,100426.45
2018-06-21T21:21:37.632Z,100422.70
2018-06-21T21:24:17.332Z,100432.95
2018-06-21T21:26:55.769Z,100406.55
2018-06-21T21:29:32.342Z,100436.89
2018-06-21T21:32:08.037Z,100423.26
2018-06-21T21:34:44.181Z,100442.07
2018-06-21T21:37:27.535Z,100440.16
2018-06-21T21:40:09.989Z,100440.09
2018-06-21T21:42:45.874Z,100442.92
2018-06-21T21:45:20.271Z,100439.59
2018-06-21T21:47:56.355Z,100442.17
2018-06-21T21:50:31.134Z,100443.25
2018-06-21T21:53:14.646Z,100448.91
2018-06-21T21:55:50.579Z,100459.34
2018-06-21T21:58:32.423Z,100457.27
2018-06-21T22:01:08.308Z,100458.03
2018-06-21T22:03:44.282Z,100459.05
2018-06-21T22:06:21.712Z,100467.80
2018-06-21T22:09:01.623Z,100470.36
2018-06-21T22:11:41.761Z,100443.89
2018-06-21T22:14:19.535Z,100475.06
2018-06-21T22:17:00.632Z,100466.52
2018-06-21T22:19:33.901Z,100463.16
2018-06-21T22:22:10.137Z,100476.56
2018-06-21T22:24:43.472Z,100472.52
2018-06-21T22:27:18.570Z,100475.61
2018-06-21T22:29:55.275Z,100472.27
2018-06-21T22:32:34.692Z,100469.91
2018-06-21T22:35:09.356Z,100478.91
2018-06-21T22:37:47.906Z,100468.64
2018-06-21T22:40:32.435Z,100472.43
2018-06-21T22:43:10.432Z,100468.94
2018-06-21T22:45:46.747Z,100484.02
2018-06-21T22:48:26.293Z,100476.98
2018-06-21T22:51:02.462Z,100479.67
2018-06-21T22:53:37.283Z,100484.34
2018-06-21T22:56:13.329Z,100495.69
2018-06-21T22:58:49.354Z,100499.79
2018-06-21T23:01:29.199Z,100497.25
2018-06-21T23:04:05.082Z,100485.39
2018-06-21T23:06:41.415Z,100495.33
2018-06-21T23:09:17.028Z,100480.17
2018-06-21T23:11:55.465Z,100493.98
2018-06-21T23:14:34.779Z,100485.56
2018-06-21T23:17:13.485Z,100506.08
2018-06-21T23:20:01.844Z,100507.02
2018-06-21T23:22:37.722Z,100516.50
2018-06-21T23:25:12.489Z,100518.06
2018-06-21T23:27:51.058Z,100515.98
2018-06-21T23:30:28.439Z,100511.51
2018-06-21T23:33:09.437Z,100520.53
2018-06-21T23:35:54.484Z,100520.09
2018-06-21T23:38:28.461Z,100522.91
2018-06-21T23:41:02.388Z,100520.48
2018-06-21T23:43:37.212Z,100513.05
2018-06-21T23:46:11.691Z,100516.44
2018-06-21T23:48:51.707Z,100521.17
2018-06-21T23:51:27.044Z,100517.14
2018-06-21T23:54:00.601Z,100519.45
2018-06-21T23:56:35.398Z,100513.05
2018-06-21T23:59:11.439Z,100519.91
